createdAt,value
2023-06-15T00:02:24.621Z,53.65
2023-06-15T00:05:17.198Z,53.88
2023-06-15T00:07:44.941Z,53.89
2023-06-15T00:10:12.799Z,54.43
2023-06-15T00:12:39.824Z,54.36
2023-06-15T00:15:07.779Z,54.81
2023-06-15T00:17:39.136Z,54.40
2023-06-15T00:20:09.617Z,55.19
2023-06-15T00:22:39.754Z,55.46
2023-06-15T00:25:08.295Z,55.84
2023-06-15T00:27:36.710Z,56.25
2023-06-15T00:30:07.169Z,56.88
2023-06-15T00:32:34.202Z,56.97
2023-06-15T00:35:01.219Z,57.57
2023-06-15T00:37:28.220Z,58.30
2023-06-15T00:39:55.699Z,58.49
2023-06-15T00:42:22.798Z,59.77
2023-06-15T00:44:49.759Z,60.09
2023-06-15T00:47:22.472Z,60.42
2023-06-15T00:49:50.320Z,61.05
2023-06-15T00:52:18.698Z,60.88
2023-06-15T00:54:46.663Z,61.46
2023-06-15T00:57:15.945Z,61.60
2023-06-15T00:59:43.728Z,61.84
2023-06-15T01:02:14.207Z,62.06
2023-06-15T01:04:41.627Z,62.43
2023-06-15T01:07:12.322Z,62.35
2023-06-15T01:09:42.978Z,63.10
2023-06-15T01:12:15.564Z,62.96
2023-06-15T01:14:42.680Z,63.40
2023-06-15T01:17:17.298Z,64.29
2023-06-15T01:19:59.264Z,63.93
2023-06-15T01:22:36.323Z,63.78
2023-06-15T01:25:34.323Z,64.00
2023-06-15T01:28:03.918Z,64.04
2023-06-15T01:30:34.880Z,64.43
2023-06-15T01:33:02.315Z,64.02
2023-06-15T01:35:37.406Z,64.31
2023-06-15T01:38:05.143Z,64.28
2023-06-15T01:40:35.134Z,64.50
2023-06-15T01:43:04.378Z,64.63
2023-06-15T01:45:40.942Z,64.78
2023-06-15T01:48:08.487Z,65.28
2023-06-15T01:50:37.325Z,65.50
2023-06-15T01:53:04.762Z,65.72
2023-06-15T01:55:36.558Z,65.71
2023-06-15T01:58:04.042Z,66.17
2023-06-15T02:00:31.119Z,66.23
2023-06-15T02:02:58.286Z,66.49
2023-06-15T02:05:25.346Z,66.87
2023-06-15T02:07:53.635Z,67.05
2023-06-15T02:10:20.890Z,67.55
2023-06-15T02:12:47.930Z,67.52
2023-06-15T02:15:15.191Z,67.29
2023-06-15T02:17:42.871Z,67.41
2023-06-15T02:20:10.915Z,67.57
2023-06-15T02:22:38.029Z,67.74
2023-06-15T02:25:06.313Z,67.69
2023-06-15T02:27:33.267Z,67.61
2023-06-15T02:30:00.335Z,67.72
2023-06-15T02:32:36.587Z,67.73
2023-06-15T02:35:06.614Z,67.99
2023-06-15T02:37:34.094Z,68.22
2023-06-15T02:40:01.333Z,68.64
2023-06-15T02:42:28.282Z,68.53
2023-06-15T02:44:55.245Z,68.44
2023-06-15T02:47:22.410Z,68.69
2023-06-15T02:49:49.482Z,69.17
2023-06-15T02:52:16.593Z,69.17
2023-06-15T02:54:44.713Z,69.65
2023-06-15T02:57:11.706Z,69.51
2023-06-15T02:59:39.102Z,69.95
2023-06-15T03:02:06.317Z,69.49
2023-06-15T03:04:45.738Z,69.91
2023-06-15T03:07:18.410Z,70.41
2023-06-15T03:09:48.983Z,70.35
2023-06-15T03:12:16.667Z,70.42
2023-06-15T03:14:51.899Z,70.37
2023-06-15T03:17:19.972Z,70.27
2023-06-15T03:19:49.027Z,70.67
2023-06-15T03:22:16.466Z,70.88
2023-06-15T03:24:46.110Z,71.16
2023-06-15T03:27:13.298Z,71.41
2023-06-15T03:29:40.964Z,71.46
2023-06-15T03:32:09.398Z,72.09
2023-06-15T03:34:37.300Z,72.05
2023-06-15T03:37:04.712Z,72.43
2023-06-15T03:39:32.185Z,72.92
2023-06-15T03:41:59.436Z,73.04
2023-06-15T03:44:26.498Z,73.02
2023-06-15T03:46:53.438Z,73.17
2023-06-15T03:49:20.367Z,73.38
2023-06-15T03:51:47.393Z,73.42
2023-06-15T03:54:14.293Z,73.49
2023-06-15T03:56:41.783Z,73.78
2023-06-15T03:59:08.858Z,74.03
2023-06-15T04:01:35.755Z,74.11
2023-06-15T04:04:02.825Z,74.40
2023-06-15T04:06:31.316Z,74.39
2023-06-15T04:08:58.420Z,74.26
2023-06-15T04:11:25.610Z,74.02
2023-06-15T04:13:52.537Z,74.36
2023-06-15T04:16:19.443Z,73.76
2023-06-15T04:18:46.987Z,73.16
2023-06-15T04:21:14.212Z,72.95
2023-06-15T04:23:44.693Z,72.98
2023-06-15T04:26:11.744Z,73.55
2023-06-15T04:28:38.692Z,73.21
2023-06-15T04:31:11.566Z,73.21
2023-06-15T04:33:46.323Z,73.33
2023-06-15T04:36:14.192Z,73.55
2023-06-15T04:38:47.921Z,73.73
2023-06-15T04:41:16.305Z,73.67
2023-06-15T04:43:43.339Z,73.12
2023-06-15T04:46:10.465Z,73.48
2023-06-15T04:48:38.163Z,73.22
2023-06-15T04:51:06.399Z,74.08
2023-06-15T04:53:33.427Z,73.57
2023-06-15T04:56:00.431Z,73.89
2023-06-15T04:58:27.413Z,73.64
2023-06-15T05:00:54.409Z,73.67
2023-06-15T05:03:26.978Z,73.53
2023-06-15T05:05:54.453Z,73.47
2023-06-15T05:08:21.582Z,72.94
2023-06-15T05:10:48.654Z,73.26
2023-06-15T05:13:23.784Z,73.54
2023-06-15T05:15:54.746Z,73.72
2023-06-15T05:18:23.020Z,73.38
2023-06-15T05:20:50.174Z,73.46
2023-06-15T05:23:21.265Z,73.60
2023-06-15T05:25:48.235Z,73.47
2023-06-15T05:28:15.702Z,73.48
2023-06-15T05:30:42.630Z,73.10
2023-06-15T05:33:09.770Z,73.37
2023-06-15T05:35:36.862Z,72.99
2023-06-15T05:38:03.828Z,72.97
2023-06-15T05:40:30.894Z,72.90
2023-06-15T05:42:58.371Z,72.67
2023-06-15T05:45:27.309Z,72.93
2023-06-15T05:47:54.748Z,72.93
2023-06-15T05:50:21.924Z,73.47
2023-06-15T05:52:49.170Z,73.12
2023-06-15T05:55:16.626Z,73.20
2023-06-15T05:57:43.799Z,73.58
2023-06-15T06:00:11.820Z,73.89
2023-06-15T06:02:38.886Z,72.65
2023-06-15T06:05:06.288Z,72.05
2023-06-15T06:07:33.220Z,71.53
2023-06-15T06:10:00.247Z,71.18
2023-06-15T06:12:27.262Z,70.56
2023-06-15T06:14:54.204Z,70.14
2023-06-15T06:17:42.957Z,70.25
2023-06-15T06:20:08.792Z,70.38
2023-06-15T06:22:35.892Z,71.19
2023-06-15T06:25:02.861Z,71.46
2023-06-15T06:27:29.798Z,71.91
2023-06-15T06:29:57.563Z,71.42
2023-06-15T06:32:24.599Z,72.00
2023-06-15T06:34:51.702Z,70.53
2023-06-15T06:37:18.744Z,69.82
2023-06-15T06:39:45.677Z,70.20
2023-06-15T06:42:13.014Z,69.93
2023-06-15T06:44:40.136Z,68.53
2023-06-15T06:47:07.565Z,68.56
2023-06-15T06:49:35.152Z,69.51
2023-06-15T06:52:02.455Z,69.94
2023-06-15T06:54:29.461Z,70.08
2023-06-15T06:56:56.405Z,70.58
2023-06-15T06:59:41.875Z,70.51
2023-06-15T07:02:10.545Z,70.59
2023-06-15T07:04:41.336Z,70.81
2023-06-15T07:07:08.590Z,70.85
2023-06-15T07:09:36.251Z,71.01
2023-06-15T07:12:03.738Z,70.77
2023-06-15T07:14:36.221Z,71.08
2023-06-15T07:17:03.567Z,71.22
2023-06-15T07:19:30.695Z,71.45
2023-06-15T07:21:57.788Z,71.29
2023-06-15T07:24:25.223Z,71.04
2023-06-15T07:26:52.685Z,70.99
2023-06-15T07:29:20.881Z,70.84
2023-06-15T07:31:50.044Z,69.97
2023-06-15T07:34:17.870Z,69.41
2023-06-15T07:36:46.651Z,69.46
2023-06-15T07:39:18.189Z,67.78
2023-06-15T07:41:45.660Z,66.34
2023-06-15T07:44:23.628Z,61.06
2023-06-15T07:46:51.624Z,57.49
2023-06-15T07:49:24.516Z,55.84
2023-06-15T07:52:09.456Z,56.10
2023-06-15T07:54:43.587Z,55.07
2023-06-15T07:57:12.601Z,55.75
2023-06-15T07:59:43.512Z,57.32
2023-06-15T08:02:17.142Z,57.59
2023-06-15T08:05:03.370Z,58.30
2023-06-15T08:07:33.295Z,58.46
2023-06-15T08:10:01.513Z,59.68
2023-06-15T08:12:40.450Z,60.85
2023-06-15T08:15:22.592Z,61.23
2023-06-15T08:18:17.617Z,60.07
2023-06-15T08:20:58.734Z,60.10
2023-06-15T08:23:39.102Z,60.68
2023-06-15T08:26:17.605Z,60.40
2023-06-15T08:28:52.333Z,61.05
2023-06-15T08:31:21.678Z,58.57
2023-06-15T08:34:04.815Z,55.91
2023-06-15T08:39:28.820Z,55.34
2023-06-15T08:41:57.494Z,56.29
2023-06-15T08:44:31.111Z,57.39
2023-06-15T08:47:17.359Z,56.98
2023-06-15T08:49:53.937Z,57.80
2023-06-15T08:52:33.788Z,57.21
2023-06-15T08:55:23.740Z,56.75
2023-06-15T08:58:27.798Z,57.70
2023-06-15T09:01:20.426Z,58.97
2023-06-15T09:03:58.820Z,59.79
2023-06-15T09:06:44.335Z,59.37
2023-06-15T09:09:21.553Z,59.62
2023-06-15T09:11:50.547Z,58.02
2023-06-15T09:17:55.964Z,57.72
2023-06-15T09:20:45.710Z,56.69
2023-06-15T09:23:28.186Z,56.51
2023-06-15T09:26:27.648Z,55.81
2023-06-15T09:29:19.299Z,56.31
2023-06-15T09:31:48.935Z,56.96
2023-06-15T09:34:36.378Z,57.78
2023-06-15T09:37:36.003Z,57.65
2023-06-15T09:40:16.644Z,56.84
2023-06-15T09:42:57.141Z,55.32
2023-06-15T09:45:43.587Z,54.99
2023-06-15T09:48:27.704Z,54.49
2023-06-15T09:51:07.363Z,51.56
2023-06-15T09:54:02.622Z,52.21
2023-06-15T09:56:45.670Z,52.09
2023-06-15T09:59:27.462Z,52.46
2023-06-15T10:02:14.629Z,53.00
2023-06-15T10:04:44.448Z,53.06
2023-06-15T10:07:14.174Z,52.00
2023-06-15T10:09:48.670Z,51.88
2023-06-15T10:12:19.215Z,51.38
2023-06-15T10:15:00.212Z,51.18
2023-06-15T10:17:35.502Z,48.90
2023-06-15T10:20:09.415Z,49.93
2023-06-15T10:22:47.857Z,50.60
2023-06-15T10:25:16.555Z,51.31
2023-06-15T10:27:46.050Z,49.93
2023-06-15T10:30:33.512Z,49.94
2023-06-15T10:33:18.773Z,48.79
2023-06-15T10:36:12.558Z,47.26
2023-06-15T10:38:50.260Z,48.07
2023-06-15T10:41:18.391Z,48.03
2023-06-15T10:43:59.826Z,47.58
2023-06-15T10:46:33.025Z,48.33
2023-06-15T10:49:11.841Z,48.69
2023-06-15T10:51:51.967Z,48.80
2023-06-15T10:54:29.120Z,47.52
2023-06-15T10:56:57.598Z,47.99
2023-06-15T10:59:38.523Z,45.62
2023-06-15T11:02:35.409Z,43.55
2023-06-15T11:05:12.301Z,43.08
2023-06-15T11:07:43.122Z,42.23
2023-06-15T11:10:12.332Z,42.47
2023-06-15T11:12:42.805Z,44.29
2023-06-15T11:15:12.554Z,44.06
2023-06-15T11:18:00.377Z,44.00
2023-06-15T11:20:41.207Z,43.65
2023-06-15T11:23:22.486Z,42.61
2023-06-15T11:25:52.539Z,41.31
2023-06-15T11:28:35.824Z,40.58
2023-06-15T11:31:08.545Z,40.86
2023-06-15T11:33:39.164Z,39.97
2023-06-15T11:36:08.825Z,40.15
2023-06-15T11:38:38.126Z,40.52
2023-06-15T11:41:09.021Z,41.81
2023-06-15T11:43:42.684Z,41.59
2023-06-15T11:46:13.539Z,39.40
2023-06-15T11:48:43.068Z,39.44
2023-06-15T11:51:13.083Z,39.49
2023-06-15T11:53:42.406Z,40.43
2023-06-15T11:56:16.340Z,40.01
2023-06-15T11:58:47.922Z,39.91
2023-06-15T12:01:17.586Z,39.39
2023-06-15T12:04:02.078Z,39.79
2023-06-15T12:06:32.816Z,38.94
2023-06-15T12:09:01.126Z,38.97
2023-06-15T12:11:28.789Z,38.74
2023-06-15T12:14:08.564Z,38.77
2023-06-15T12:16:36.835Z,39.08
2023-06-15T12:19:05.945Z,38.76
2023-06-15T12:21:39.109Z,38.19
2023-06-15T12:24:15.628Z,38.30
2023-06-15T12:26:49.200Z,37.14
2023-06-15T12:29:18.320Z,36.69
2023-06-15T12:31:50.957Z,36.59
2023-06-15T12:34:24.144Z,36.77
2023-06-15T12:36:54.104Z,37.27
2023-06-15T12:39:28.245Z,37.46
2023-06-15T12:42:05.128Z,37.58
2023-06-15T12:44:36.296Z,37.73
2023-06-15T12:47:04.419Z,36.86
2023-06-15T12:49:33.279Z,37.45
2023-06-15T12:52:01.394Z,37.53
2023-06-15T12:54:29.039Z,36.93
2023-06-15T12:56:56.690Z,36.88
2023-06-15T12:59:24.562Z,36.92
2023-06-15T13:01:52.249Z,37.09
2023-06-15T13:04:20.547Z,37.64
2023-06-15T13:06:48.518Z,37.12
2023-06-15T13:09:16.090Z,37.81
2023-06-15T13:11:44.119Z,38.20
2023-06-15T13:14:11.673Z,37.81
2023-06-15T13:16:39.472Z,38.11
2023-06-15T13:19:09.135Z,37.18
2023-06-15T13:21:36.637Z,37.01
2023-06-15T13:24:04.683Z,36.96
2023-06-15T13:26:32.504Z,36.63
2023-06-15T13:29:02.801Z,36.15
2023-06-15T13:31:30.409Z,35.91
2023-06-15T13:33:57.983Z,35.35
2023-06-15T13:36:25.679Z,35.52
2023-06-15T13:38:54.005Z,35.73
2023-06-15T13:41:21.493Z,36.80
2023-06-15T13:43:49.857Z,36.95
2023-06-15T13:46:19.471Z,37.34
2023-06-15T13:48:47.671Z,37.45
2023-06-15T13:51:15.323Z,37.45
2023-06-15T13:53:42.868Z,37.22
2023-06-15T13:56:10.762Z,37.52
2023-06-15T13:58:38.823Z,37.39
2023-06-15T14:01:06.998Z,36.96
2023-06-15T14:03:35.516Z,37.08
2023-06-15T14:06:03.787Z,37.01
2023-06-15T14:08:31.675Z,37.55
2023-06-15T14:10:59.508Z,37.49
2023-06-15T14:13:28.742Z,36.70
2023-06-15T14:15:56.466Z,36.31
2023-06-15T14:18:24.970Z,36.41
2023-06-15T14:20:52.809Z,36.09
2023-06-15T14:23:20.778Z,37.65
2023-06-15T14:25:48.624Z,37.54
2023-06-15T14:28:18.884Z,37.78
2023-06-15T14:30:46.765Z,37.43
2023-06-15T14:33:14.762Z,36.73
2023-06-15T14:35:42.249Z,37.71
2023-06-15T14:38:09.980Z,36.41
2023-06-15T14:40:38.122Z,36.34
2023-06-15T14:43:05.914Z,36.58
2023-06-15T14:45:33.184Z,36.75
2023-06-15T14:48:00.480Z,37.16
2023-06-15T14:50:27.885Z,36.56
2023-06-15T14:52:55.385Z,36.64
2023-06-15T14:55:22.829Z,37.25
2023-06-15T14:57:50.266Z,37.31
2023-06-15T15:00:19.002Z,36.95
2023-06-15T15:02:49.067Z,36.88
2023-06-15T15:05:17.988Z,36.67
2023-06-15T15:07:45.538Z,37.08
2023-06-15T15:10:13.043Z,37.14
2023-06-15T15:12:41.367Z,37.07
2023-06-15T15:15:09.728Z,37.48
2023-06-15T15:17:37.102Z,38.04
2023-06-15T15:20:05.844Z,37.93
2023-06-15T15:22:33.320Z,38.46
2023-06-15T15:25:01.155Z,37.09
2023-06-15T15:27:28.929Z,38.29
2023-06-15T15:29:56.258Z,37.85
2023-06-15T15:32:23.619Z,37.59
2023-06-15T15:34:51.442Z,37.81
2023-06-15T15:37:19.211Z,37.94
2023-06-15T15:39:46.642Z,38.96
2023-06-15T15:42:14.126Z,38.36
2023-06-15T15:44:41.580Z,37.99
2023-06-15T15:47:09.373Z,37.94
2023-06-15T15:49:36.845Z,38.88
2023-06-15T15:52:04.685Z,38.76
2023-06-15T15:54:31.998Z,38.38
2023-06-15T15:57:01.700Z,38.56
2023-06-15T15:59:29.049Z,38.29
2023-06-15T16:01:56.947Z,38.67
2023-06-15T16:04:24.558Z,38.58
2023-06-15T16:06:52.242Z,38.14
2023-06-15T16:09:19.547Z,39.11
2023-06-15T16:11:46.988Z,38.44
2023-06-15T16:14:14.249Z,38.33
2023-06-15T16:16:41.736Z,38.60
2023-06-15T16:19:09.055Z,38.83
2023-06-15T16:21:37.745Z,38.92
2023-06-15T16:24:06.802Z,38.36
2023-06-15T16:26:34.181Z,38.50
2023-06-15T16:29:01.671Z,38.66
2023-06-15T16:31:29.074Z,39.49
2023-06-15T16:33:56.312Z,38.47
2023-06-15T16:36:23.814Z,38.84
2023-06-15T16:38:51.300Z,38.75
2023-06-15T16:41:18.559Z,39.15
2023-06-15T16:43:45.796Z,39.47
2023-06-15T16:46:16.622Z,38.99
2023-06-15T16:48:43.931Z,39.17
2023-06-15T16:51:11.290Z,39.68
2023-06-15T16:53:38.672Z,39.79
2023-06-15T16:56:06.253Z,40.98
2023-06-15T16:58:33.510Z,39.99
2023-06-15T17:01:01.062Z,39.67
2023-06-15T17:03:28.753Z,38.98
2023-06-15T17:05:56.561Z,39.60
2023-06-15T17:08:23.935Z,38.99
2023-06-15T17:10:51.340Z,39.27
2023-06-15T17:13:18.621Z,39.02
2023-06-15T17:15:46.211Z,39.34
2023-06-15T17:18:13.541Z,38.76
2023-06-15T17:20:40.778Z,38.27
2023-06-15T17:23:08.121Z,39.26
2023-06-15T17:25:35.502Z,38.21
2023-06-15T17:28:03.459Z,38.33
2023-06-15T17:30:31.295Z,38.31
2023-06-15T17:32:58.720Z,38.65
2023-06-15T17:35:26.417Z,38.58
2023-06-15T17:37:53.706Z,37.99
2023-06-15T17:40:21.856Z,38.33
2023-06-15T17:42:49.549Z,38.80
2023-06-15T17:45:16.730Z,38.35
2023-06-15T17:47:45.121Z,37.61
2023-06-15T17:50:12.421Z,37.33
2023-06-15T17:52:41.002Z,37.41
2023-06-15T17:55:09.516Z,37.26
2023-06-15T17:57:37.400Z,37.41
2023-06-15T18:00:07.581Z,36.68
2023-06-15T18:02:36.872Z,36.43
2023-06-15T18:05:08.261Z,36.48
2023-06-15T18:07:35.730Z,36.82
2023-06-15T18:10:03.651Z,36.70
2023-06-15T18:12:31.739Z,36.98
2023-06-15T18:14:59.619Z,36.22
2023-06-15T18:17:27.528Z,36.20
2023-06-15T18:19:54.742Z,36.55
2023-06-15T18:22:22.007Z,36.72
2023-06-15T18:24:49.389Z,36.93
2023-06-15T18:27:16.758Z,36.94
2023-06-15T18:29:43.979Z,37.19
2023-06-15T18:32:11.332Z,37.15
2023-06-15T18:34:48.660Z,38.31
2023-06-15T18:37:16.016Z,37.80
2023-06-15T18:39:43.221Z,37.59
2023-06-15T18:42:11.929Z,38.00
2023-06-15T18:44:39.130Z,38.33
2023-06-15T18:47:07.347Z,38.11
2023-06-15T18:49:34.712Z,38.33
2023-06-15T18:52:02.020Z,37.98
2023-06-15T18:54:29.204Z,38.63
2023-06-15T18:56:57.795Z,38.88
2023-06-15T18:59:25.004Z,39.13
2023-06-15T19:01:52.962Z,39.23
2023-06-15T19:04:20.368Z,39.79
2023-06-15T19:06:48.546Z,40.10
2023-06-15T19:09:15.991Z,40.52
2023-06-15T19:11:43.599Z,40.64
2023-06-15T19:14:11.582Z,40.67
2023-06-15T19:16:38.729Z,40.68
2023-06-15T19:19:06.179Z,41.05
2023-06-15T19:21:38.470Z,41.88
2023-06-15T19:24:09.006Z,42.27
2023-06-15T19:26:37.648Z,41.82
2023-06-15T19:29:06.316Z,42.26
2023-06-15T19:31:34.407Z,42.57
2023-06-15T19:34:02.070Z,42.67
2023-06-15T19:36:30.179Z,42.58
2023-06-15T19:39:02.659Z,42.64
2023-06-15T19:41:31.196Z,42.42
2023-06-15T19:43:58.720Z,42.66
2023-06-15T19:46:25.938Z,42.40
2023-06-15T19:48:55.510Z,42.72
2023-06-15T19:51:22.865Z,43.25
2023-06-15T19:53:52.329Z,42.92
2023-06-15T19:56:19.677Z,43.77
2023-06-15T19:58:47.040Z,43.65
2023-06-15T20:01:14.436Z,44.20
2023-06-15T20:03:41.767Z,44.04
2023-06-15T20:06:10.958Z,44.01
2023-06-15T20:08:39.653Z,43.63
2023-06-15T20:11:08.723Z,44.38
2023-06-15T20:13:38.306Z,43.63
2023-06-15T20:16:13.672Z,43.65
2023-06-15T20:18:48.093Z,44.22
2023-06-15T20:21:15.852Z,44.09
2023-06-15T20:23:43.908Z,43.92
2023-06-15T20:26:14.059Z,44.93
2023-06-15T20:28:43.437Z,44.90
2023-06-15T20:31:10.983Z,45.03
2023-06-15T20:33:41.888Z,45.68
2023-06-15T20:36:08.999Z,45.78
2023-06-15T20:38:36.437Z,45.94
2023-06-15T20:41:05.809Z,46.00
2023-06-15T20:43:33.695Z,46.39
2023-06-15T20:46:03.177Z,45.87
2023-06-15T20:48:34.203Z,46.57
2023-06-15T20:51:02.837Z,45.98
2023-06-15T20:53:30.163Z,46.44
2023-06-15T20:55:58.187Z,46.86
2023-06-15T20:58:25.388Z,46.91
2023-06-15T21:00:53.242Z,47.82
2023-06-15T21:03:20.669Z,47.53
2023-06-15T21:05:48.566Z,47.23
2023-06-15T21:08:15.833Z,47.78
2023-06-15T21:10:43.086Z,47.67
2023-06-15T21:13:10.337Z,47.96
2023-06-15T21:15:38.328Z,48.54
2023-06-15T21:18:05.717Z,48.69
2023-06-15T21:20:38.881Z,49.61
2023-06-15T21:23:05.988Z,49.87
2023-06-15T21:25:33.153Z,49.74
2023-06-15T21:28:00.351Z,49.92
2023-06-15T21:30:27.558Z,49.29
2023-06-15T21:32:55.041Z,49.73
2023-06-15T21:35:26.559Z,49.53
2023-06-15T21:37:53.862Z,50.42
2023-06-15T21:40:21.142Z,49.98
2023-06-15T21:42:49.555Z,50.13
2023-06-15T21:45:17.236Z,50.36
2023-06-15T21:47:46.565Z,50.82
2023-06-15T21:50:14.097Z,50.93
2023-06-15T21:52:47.439Z,51.57
2023-06-15T21:55:16.408Z,52.63
2023-06-15T21:57:45.605Z,53.11
2023-06-15T22:00:13.935Z,53.46
2023-06-15T22:02:42.074Z,54.05
2023-06-15T22:05:10.027Z,53.52
2023-06-15T22:07:37.169Z,53.93
2023-06-15T22:10:07.015Z,54.39
2023-06-15T22:12:34.560Z,54.45
2023-06-15T22:15:02.660Z,54.91
2023-06-15T22:17:29.840Z,55.07
2023-06-15T22:19:58.793Z,54.66
2023-06-15T22:22:26.563Z,54.51
2023-06-15T22:24:54.916Z,54.56
2023-06-15T22:27:22.187Z,54.51
2023-06-15T22:29:52.625Z,54.45
2023-06-15T22:32:21.074Z,54.53
2023-06-15T22:34:49.516Z,54.53
2023-06-15T22:37:17.697Z,54.73
2023-06-15T22:39:45.211Z,55.01
2023-06-15T22:42:12.951Z,54.95
2023-06-15T22:44:40.138Z,55.29
2023-06-15T22:47:07.859Z,54.58
2023-06-15T22:49:35.763Z,54.77
2023-06-15T22:52:04.694Z,54.62
2023-06-15T22:54:32.657Z,54.61
2023-06-15T22:56:59.819Z,54.50
2023-06-15T22:59:26.896Z,54.60
2023-06-15T23:01:54.270Z,54.27
2023-06-15T23:04:21.470Z,54.66
2023-06-15T23:06:48.742Z,54.06
2023-06-15T23:09:15.971Z,53.68
2023-06-15T23:11:43.089Z,53.87
2023-06-15T23:14:10.550Z,53.76
2023-06-15T23:16:38.118Z,52.86
2023-06-15T23:19:06.120Z,52.71
2023-06-15T23:21:40.784Z,53.08
2023-06-15T23:24:08.779Z,52.90
2023-06-15T23:26:40.288Z,52.42
2023-06-15T23:29:08.222Z,52.82
2023-06-15T23:31:35.801Z,52.65
2023-06-15T23:34:03.488Z,52.10
2023-06-15T23:36:30.592Z,51.83
2023-06-15T23:38:57.659Z,51.88
2023-06-15T23:41:25.050Z,51.84
2023-06-15T23:43:53.317Z,51.33
2023-06-15T23:46:21.267Z,50.80
2023-06-15T23:48:49.391Z,50.61
2023-06-15T23:51:18.331Z,50.39
2023-06-15T23:53:46.656Z,50.64
2023-06-15T23:56:13.741Z,50.72
2023-06-15T23:58:41.264Z,51.22
